sensor_id;sensor_type;location;lat;lon;timestamp;P1;durP1;ratioP1;P2;durP2;ratioP2
51326;SDS011;37412;52.836;6.362;2024-03-08T08:35:18;33.78;;;20.90;;
51326;SDS011;37412;52.836;6.362;2024-03-08T08:38:05;34.90;;;21.35;;
51326;SDS011;37412;52.836;6.362;2024-03-08T08:40:52;37.70;;;22.35;;
51326;SDS011;37412;52.836;6.362;2024-03-08T08:43:38;32.20;;;21.48;;
51326;SDS011;37412;52.836;6.362;2024-03-08T08:46:24;31.63;;;20.98;;
51326;SDS011;37412;52.836;6.362;2024-03-08T08:49:11;31.05;;;21.20;;
51326;SDS011;37412;52.836;6.362;2024-03-08T08:51:59;32.00;;;21.63;;
51326;SDS011;37412;52.836;6.362;2024-03-08T08:54:46;34.03;;;22.45;;
51326;SDS011;37412;52.836;6.362;2024-03-08T09:00:21;36.65;;;23.20;;
51326;SDS011;37412;52.836;6.362;2024-03-08T09:05:59;32.17;;;22.02;;
51326;SDS011;37412;52.836;6.362;2024-03-08T09:08:45;29.20;;;21.30;;
51326;SDS011;37412;52.836;6.362;2024-03-08T09:11:31;30.90;;;22.85;;
51326;SDS011;37412;52.836;6.362;2024-03-08T09:14:17;31.92;;;22.20;;
51326;SDS011;37412;52.836;6.362;2024-03-08T09:17:04;30.85;;;21.50;;
51326;SDS011;37412;52.836;6.362;2024-03-08T09:19:50;30.60;;;22.20;;
51326;SDS011;37412;52.836;6.362;2024-03-08T09:22:36;30.33;;;22.33;;
51326;SDS011;37412;52.836;6.362;2024-03-08T09:25:22;32.85;;;22.63;;
51326;SDS011;37412;52.836;6.362;2024-03-08T09:28:09;32.35;;;22.17;;
51326;SDS011;37412;52.836;6.362;2024-03-08T09:30:57;30.35;;;22.52;;
51326;SDS011;37412;52.836;6.362;2024-03-08T09:33:44;30.27;;;22.70;;
51326;SDS011;37412;52.836;6.362;2024-03-08T09:36:30;32.65;;;22.75;;
51326;SDS011;37412;52.836;6.362;2024-03-08T09:39:18;32.45;;;22.80;;
51326;SDS011;37412;52.836;6.362;2024-03-08T09:42:06;34.10;;;23.55;;
51326;SDS011;37412;52.836;6.362;2024-03-08T09:44:52;31.83;;;22.63;;
51326;SDS011;37412;52.836;6.362;2024-03-08T09:47:39;29.60;;;21.92;;
51326;SDS011;37412;52.836;6.362;2024-03-08T09:50:27;29.65;;;22.17;;
51326;SDS011;37412;52.836;6.362;2024-03-08T09:53:15;28.25;;;21.42;;
51326;SDS011;37412;52.836;6.362;2024-03-08T09:56:02;29.00;;;20.95;;
51326;SDS011;37412;52.836;6.362;2024-03-08T09:58:49;30.55;;;22.67;;
51326;SDS011;37412;52.836;6.362;2024-03-08T10:01:54;30.42;;;22.63;;
51326;SDS011;37412;52.836;6.362;2024-03-08T10:04:43;31.67;;;22.88;;
51326;SDS011;37412;52.836;6.362;2024-03-08T10:07:31;32.35;;;23.52;;
51326;SDS011;37412;52.836;6.362;2024-03-08T10:10:18;33.58;;;22.88;;
51326;SDS011;37412;52.836;6.362;2024-03-08T10:13:08;29.02;;;22.02;;
51326;SDS011;37412;52.836;6.362;2024-03-08T10:15:55;29.27;;;21.58;;
51326;SDS011;37412;52.836;6.362;2024-03-08T10:18:41;31.17;;;23.13;;
51326;SDS011;37412;52.836;6.362;2024-03-08T10:21:27;28.02;;;21.50;;
51326;SDS011;37412;52.836;6.362;2024-03-08T10:24:13;32.33;;;22.95;;
51326;SDS011;37412;52.836;6.362;2024-03-08T10:27:00;31.45;;;23.70;;
51326;SDS011;37412;52.836;6.362;2024-03-08T10:29:49;30.92;;;22.55;;
51326;SDS011;37412;52.836;6.362;2024-03-08T10:32:37;31.60;;;23.65;;
51326;SDS011;37412;52.836;6.362;2024-03-08T10:35:23;29.48;;;22.33;;
51326;SDS011;37412;52.836;6.362;2024-03-08T10:38:09;31.40;;;22.92;;
51326;SDS011;37412;52.836;6.362;2024-03-08T10:44:10;33.78;;;23.48;;
51326;SDS011;37412;52.836;6.362;2024-03-08T10:50:09;32.00;;;22.98;;
51326;SDS011;37412;52.836;6.362;2024-03-08T10:53:04;33.63;;;24.08;;
51326;SDS011;37412;52.836;6.362;2024-03-08T10:55:52;34.30;;;23.33;;
51326;SDS011;37412;52.836;6.362;2024-03-08T10:58:39;33.05;;;22.75;;
51326;SDS011;37412;52.836;6.362;2024-03-08T11:01:26;33.90;;;22.92;;
51326;SDS011;37412;52.836;6.362;2024-03-08T11:04:12;32.75;;;22.60;;
51326;SDS011;37412;52.836;6.362;2024-03-08T11:07:01;33.05;;;22.80;;
51326;SDS011;37412;52.836;6.362;2024-03-08T11:09:52;30.92;;;22.05;;
51326;SDS011;37412;52.836;6.362;2024-03-08T11:12:38;31.08;;;22.85;;
51326;SDS011;37412;52.836;6.362;2024-03-08T11:15:24;31.25;;;22.75;;
51326;SDS011;37412;52.836;6.362;2024-03-08T11:18:10;33.20;;;22.80;;
51326;SDS011;37412;52.836;6.362;2024-03-08T11:20:57;31.52;;;22.35;;
51326;SDS011;37412;52.836;6.362;2024-03-08T11:23:59;35.60;;;23.83;;
51326;SDS011;37412;52.836;6.362;2024-03-08T11:26:46;31.40;;;22.73;;
51326;SDS011;37412;52.836;6.362;2024-03-08T11:29:36;33.97;;;23.55;;
51326;SDS011;37412;52.836;6.362;2024-03-08T11:32:27;34.85;;;23.13;;
51326;SDS011;37412;52.836;6.362;2024-03-08T11:35:19;33.30;;;22.45;;
51326;SDS011;37412;52.836;6.362;2024-03-08T11:38:07;31.23;;;22.60;;
51326;SDS011;37412;52.836;6.362;2024-03-08T11:40:56;32.65;;;23.02;;
51326;SDS011;37412;52.836;6.362;2024-03-08T11:43:42;31.27;;;21.95;;
51326;SDS011;37412;52.836;6.362;2024-03-08T11:46:28;37.08;;;23.05;;
51326;SDS011;37412;52.836;6.362;2024-03-08T11:49:15;30.67;;;23.17;;
51326;SDS011;37412;52.836;6.362;2024-03-08T11:52:01;32.20;;;22.60;;
51326;SDS011;37412;52.836;6.362;2024-03-08T12:08:57;33.22;;;22.23;;
51326;SDS011;37412;52.836;6.362;2024-03-08T12:11:43;28.10;;;20.48;;
51326;SDS011;37412;52.836;6.362;2024-03-08T12:14:33;30.20;;;21.27;;
51326;SDS011;37412;52.836;6.362;2024-03-08T12:17:19;27.45;;;21.35;;
51326;SDS011;37412;52.836;6.362;2024-03-08T12:20:14;28.52;;;20.90;;
51326;SDS011;37412;52.836;6.362;2024-03-08T12:23:13;31.48;;;21.58;;
51326;SDS011;37412;52.836;6.362;2024-03-08T12:29:18;28.92;;;20.75;;
51326;SDS011;37412;52.836;6.362;2024-03-08T12:32:09;27.80;;;20.02;;
51326;SDS011;37412;52.836;6.362;2024-03-08T12:34:57;28.63;;;20.63;;
51326;SDS011;37412;52.836;6.362;2024-03-08T12:37:43;26.00;;;19.73;;
51326;SDS011;37412;52.836;6.362;2024-03-08T12:40:30;30.08;;;20.27;;
51326;SDS011;37412;52.836;6.362;2024-03-08T12:43:17;29.08;;;21.35;;
51326;SDS011;37412;52.836;6.362;2024-03-08T12:46:04;28.98;;;20.10;;
51326;SDS011;37412;52.836;6.362;2024-03-08T12:48:51;29.15;;;21.48;;
51326;SDS011;37412;52.836;6.362;2024-03-08T12:51:38;29.63;;;21.27;;
51326;SDS011;37412;52.836;6.362;2024-03-08T12:54:24;26.83;;;20.65;;
51326;SDS011;37412;52.836;6.362;2024-03-08T12:57:10;27.75;;;20.33;;
51326;SDS011;37412;52.836;6.362;2024-03-08T12:59:56;29.13;;;20.23;;
51326;SDS011;37412;52.836;6.362;2024-03-08T13:02:42;31.42;;;19.77;;
51326;SDS011;37412;52.836;6.362;2024-03-08T13:05:29;28.50;;;20.67;;
51326;SDS011;37412;52.836;6.362;2024-03-08T13:08:15;27.38;;;20.10;;
51326;SDS011;37412;52.836;6.362;2024-03-08T13:11:22;29.42;;;20.00;;
51326;SDS011;37412;52.836;6.362;2024-03-08T13:14:11;27.90;;;20.42;;
51326;SDS011;37412;52.836;6.362;2024-03-08T13:16:58;30.05;;;21.38;;
51326;SDS011;37412;52.836;6.362;2024-03-08T13:19:44;31.27;;;21.48;;
51326;SDS011;37412;52.836;6.362;2024-03-08T13:22:30;27.70;;;20.92;;
51326;SDS011;37412;52.836;6.362;2024-03-08T13:25:16;29.33;;;20.77;;
51326;SDS011;37412;52.836;6.362;2024-03-08T13:28:02;30.25;;;22.08;;
51326;SDS011;37412;52.836;6.362;2024-03-08T13:30:50;30.20;;;20.13;;
51326;SDS011;37412;52.836;6.362;2024-03-08T13:33:39;27.63;;;19.85;;
51326;SDS011;37412;52.836;6.362;2024-03-08T13:36:26;30.45;;;20.95;;
51326;SDS011;37412;52.836;6.362;2024-03-08T13:39:20;29.23;;;20.77;;
51326;SDS011;37412;52.836;6.362;2024-03-08T13:42:10;30.42;;;20.48;;
51326;SDS011;37412;52.836;6.362;2024-03-08T13:45:01;27.52;;;20.17;;
51326;SDS011;37412;52.836;6.362;2024-03-08T13:47:48;27.73;;;20.05;;
51326;SDS011;37412;52.836;6.362;2024-03-08T13:50:36;31.60;;;20.08;;
51326;SDS011;37412;52.836;6.362;2024-03-08T13:53:22;28.38;;;20.10;;
51326;SDS011;37412;52.836;6.362;2024-03-08T13:56:09;29.70;;;20.40;;
51326;SDS011;37412;52.836;6.362;2024-03-08T13:58:55;27.13;;;19.52;;
51326;SDS011;37412;52.836;6.362;2024-03-08T14:01:42;27.02;;;20.00;;
51326;SDS011;37412;52.836;6.362;2024-03-08T14:04:29;27.65;;;19.40;;
51326;SDS011;37412;52.836;6.362;2024-03-08T14:07:15;26.30;;;19.92;;
51326;SDS011;37412;52.836;6.362;2024-03-08T14:10:01;27.25;;;20.00;;
51326;SDS011;37412;52.836;6.362;2024-03-08T14:12:48;25.05;;;18.48;;
51326;SDS011;37412;52.836;6.362;2024-03-08T14:15:36;24.40;;;18.08;;
51326;SDS011;37412;52.836;6.362;2024-03-08T14:18:23;32.08;;;20.15;;
51326;SDS011;37412;52.836;6.362;2024-03-08T14:21:09;25.05;;;18.35;;
51326;SDS011;37412;52.836;6.362;2024-03-08T14:23:55;25.50;;;18.23;;
51326;SDS011;37412;52.836;6.362;2024-03-08T14:26:42;25.63;;;18.50;;
51326;SDS011;37412;52.836;6.362;2024-03-08T14:29:28;27.17;;;19.00;;
51326;SDS011;37412;52.836;6.362;2024-03-08T14:32:17;25.35;;;18.50;;
51326;SDS011;37412;52.836;6.362;2024-03-08T14:35:08;27.92;;;18.70;;
51326;SDS011;37412;52.836;6.362;2024-03-08T14:37:56;25.95;;;18.30;;
51326;SDS011;37412;52.836;6.362;2024-03-08T14:40:43;24.67;;;18.90;;
51326;SDS011;37412;52.836;6.362;2024-03-08T14:43:32;23.10;;;17.55;;
51326;SDS011;37412;52.836;6.362;2024-03-08T14:46:18;25.83;;;18.38;;
51326;SDS011;37412;52.836;6.362;2024-03-08T14:49:08;27.13;;;19.00;;
51326;SDS011;37412;52.836;6.362;2024-03-08T14:51:54;23.63;;;17.95;;
51326;SDS011;37412;52.836;6.362;2024-03-08T14:54:43;23.88;;;18.05;;
51326;SDS011;37412;52.836;6.362;2024-03-08T14:57:29;27.95;;;18.75;;
51326;SDS011;37412;52.836;6.362;2024-03-08T15:00:18;24.55;;;18.75;;
51326;SDS011;37412;52.836;6.362;2024-03-08T15:03:20;27.48;;;18.40;;
51326;SDS011;37412;52.836;6.362;2024-03-08T15:06:10;28.80;;;19.10;;
51326;SDS011;37412;52.836;6.362;2024-03-08T15:08:57;27.30;;;19.23;;
51326;SDS011;37412;52.836;6.362;2024-03-08T15:11:46;26.30;;;18.85;;
51326;SDS011;37412;52.836;6.362;2024-03-08T15:14:39;24.75;;;18.15;;
51326;SDS011;37412;52.836;6.362;2024-03-08T15:17:25;28.63;;;19.48;;
51326;SDS011;37412;52.836;6.362;2024-03-08T15:20:11;27.70;;;19.45;;
51326;SDS011;37412;52.836;6.362;2024-03-08T15:23:09;27.30;;;19.75;;
51326;SDS011;37412;52.836;6.362;2024-03-08T15:25:55;28.95;;;20.42;;
51326;SDS011;37412;52.836;6.362;2024-03-08T15:28:41;28.38;;;21.33;;
51326;SDS011;37412;52.836;6.362;2024-03-08T15:31:29;27.05;;;19.35;;
51326;SDS011;37412;52.836;6.362;2024-03-08T15:34:20;28.80;;;21.45;;
51326;SDS011;37412;52.836;6.362;2024-03-08T16:35:55;29.10;;;20.40;;
51326;SDS011;37412;52.836;6.362;2024-03-08T16:38:42;29.25;;;20.20;;
51326;SDS011;37412;52.836;6.362;2024-03-08T16:44:17;29.77;;;20.33;;
51326;SDS011;37412;52.836;6.362;2024-03-08T16:47:05;27.95;;;20.33;;
51326;SDS011;37412;52.836;6.362;2024-03-08T16:49:51;30.48;;;21.10;;
51326;SDS011;37412;52.836;6.362;2024-03-08T16:52:38;31.60;;;20.60;;
51326;SDS011;37412;52.836;6.362;2024-03-08T16:55:25;28.98;;;21.25;;
51326;SDS011;37412;52.836;6.362;2024-03-08T16:58:12;31.63;;;21.52;;
51326;SDS011;37412;52.836;6.362;2024-03-08T17:00:59;28.67;;;19.95;;
51326;SDS011;37412;52.836;6.362;2024-03-08T17:03:47;28.90;;;19.65;;
51326;SDS011;37412;52.836;6.362;2024-03-08T17:06:34;30.75;;;21.13;;
51326;SDS011;37412;52.836;6.362;2024-03-08T17:09:20;31.25;;;20.77;;
51326;SDS011;37412;52.836;6.362;2024-03-08T17:12:07;29.80;;;21.33;;
51326;SDS011;37412;52.836;6.362;2024-03-08T17:14:55;31.05;;;19.60;;
51326;SDS011;37412;52.836;6.362;2024-03-08T17:17:42;28.75;;;20.35;;
51326;SDS011;37412;52.836;6.362;2024-03-08T17:20:28;29.05;;;22.63;;
51326;SDS011;37412;52.836;6.362;2024-03-08T17:23:15;31.10;;;24.00;;
51326;SDS011;37412;52.836;6.362;2024-03-08T17:26:02;31.05;;;23.73;;
51326;SDS011;37412;52.836;6.362;2024-03-08T17:28:52;29.50;;;22.80;;
51326;SDS011;37412;52.836;6.362;2024-03-08T17:31:38;30.20;;;24.23;;
51326;SDS011;37412;52.836;6.362;2024-03-08T17:34:25;30.42;;;23.88;;
51326;SDS011;37412;52.836;6.362;2024-03-08T17:37:14;30.23;;;24.35;;
51326;SDS011;37412;52.836;6.362;2024-03-08T17:40:00;30.63;;;24.38;;
51326;SDS011;37412;52.836;6.362;2024-03-08T17:42:59;30.70;;;23.98;;
51326;SDS011;37412;52.836;6.362;2024-03-08T17:45:46;31.65;;;24.90;;
51326;SDS011;37412;52.836;6.362;2024-03-08T17:48:32;30.80;;;24.75;;
51326;SDS011;37412;52.836;6.362;2024-03-08T17:51:18;31.10;;;23.97;;
51326;SDS011;37412;52.836;6.362;2024-03-08T17:54:07;30.58;;;24.40;;
51326;SDS011;37412;52.836;6.362;2024-03-08T17:56:56;30.45;;;24.35;;
51326;SDS011;37412;52.836;6.362;2024-03-08T17:59:45;31.85;;;24.35;;
51326;SDS011;37412;52.836;6.362;2024-03-08T18:02:33;31.70;;;24.23;;
51326;SDS011;37412;52.836;6.362;2024-03-08T18:05:21;30.60;;;24.20;;
51326;SDS011;37412;52.836;6.362;2024-03-08T18:08:10;32.22;;;23.20;;
51326;SDS011;37412;52.836;6.362;2024-03-08T18:10:56;32.42;;;23.08;;
51326;SDS011;37412;52.836;6.362;2024-03-08T18:13:42;36.78;;;23.98;;
51326;SDS011;37412;52.836;6.362;2024-03-08T18:16:29;37.17;;;24.70;;
51326;SDS011;37412;52.836;6.362;2024-03-08T18:30:24;34.28;;;22.27;;
51326;SDS011;37412;52.836;6.362;2024-03-08T18:33:11;36.42;;;22.85;;
51326;SDS011;37412;52.836;6.362;2024-03-08T18:36:02;35.97;;;23.35;;
51326;SDS011;37412;52.836;6.362;2024-03-08T18:58:17;37.75;;;23.77;;
51326;SDS011;37412;52.836;6.362;2024-03-08T19:01:03;36.95;;;24.15;;
51326;SDS011;37412;52.836;6.362;2024-03-08T19:03:50;39.08;;;26.27;;
51326;SDS011;37412;52.836;6.362;2024-03-08T19:06:49;38.25;;;24.80;;
51326;SDS011;37412;52.836;6.362;2024-03-08T19:09:36;39.55;;;25.05;;
51326;SDS011;37412;52.836;6.362;2024-03-08T19:12:24;37.28;;;24.83;;
51326;SDS011;37412;52.836;6.362;2024-03-08T19:15:15;37.72;;;25.25;;
51326;SDS011;37412;52.836;6.362;2024-03-08T19:18:02;45.95;;;30.45;;
51326;SDS011;37412;52.836;6.362;2024-03-08T19:20:59;50.60;;;37.95;;
51326;SDS011;37412;52.836;6.362;2024-03-08T19:23:45;48.50;;;35.85;;
51326;SDS011;37412;52.836;6.362;2024-03-08T19:26:31;46.22;;;32.70;;
51326;SDS011;37412;52.836;6.362;2024-03-08T21:34:38;42.00;;;24.75;;
51326;SDS011;37412;52.836;6.362;2024-03-08T21:37:24;37.70;;;24.40;;
51326;SDS011;37412;52.836;6.362;2024-03-08T21:40:10;41.72;;;25.50;;
51326;SDS011;37412;52.836;6.362;2024-03-08T21:42:57;37.97;;;24.67;;
51326;SDS011;37412;52.836;6.362;2024-03-08T21:45:48;38.67;;;24.45;;
51326;SDS011;37412;52.836;6.362;2024-03-08T21:48:34;43.85;;;30.73;;
51326;SDS011;37412;52.836;6.362;2024-03-08T21:51:20;39.90;;;29.30;;
51326;SDS011;37412;52.836;6.362;2024-03-08T21:54:06;42.55;;;30.40;;
51326;SDS011;37412;52.836;6.362;2024-03-08T21:56:52;39.80;;;30.08;;
51326;SDS011;37412;52.836;6.362;2024-03-08T21:59:38;40.37;;;30.30;;
51326;SDS011;37412;52.836;6.362;2024-03-08T22:02:25;39.42;;;29.98;;
51326;SDS011;37412;52.836;6.362;2024-03-08T22:05:14;39.05;;;29.33;;
51326;SDS011;37412;52.836;6.362;2024-03-08T22:08:01;41.75;;;30.85;;
51326;SDS011;37412;52.836;6.362;2024-03-08T22:10:47;40.25;;;30.25;;
51326;SDS011;37412;52.836;6.362;2024-03-08T22:13:33;40.45;;;29.75;;
51326;SDS011;37412;52.836;6.362;2024-03-08T22:16:20;40.17;;;27.30;;
51326;SDS011;37412;52.836;6.362;2024-03-08T22:19:09;41.25;;;27.75;;
51326;SDS011;37412;52.836;6.362;2024-03-08T22:21:56;44.30;;;27.95;;
51326;SDS011;37412;52.836;6.362;2024-03-08T22:24:42;42.72;;;27.67;;
51326;SDS011;37412;52.836;6.362;2024-03-08T22:27:33;40.35;;;27.00;;
51326;SDS011;37412;52.836;6.362;2024-03-08T22:30:19;41.92;;;26.73;;
51326;SDS011;37412;52.836;6.362;2024-03-08T22:33:08;39.45;;;25.73;;
51326;SDS011;37412;52.836;6.362;2024-03-08T22:35:55;41.42;;;26.80;;
51326;SDS011;37412;52.836;6.362;2024-03-08T22:38:41;40.95;;;26.48;;
51326;SDS011;37412;52.836;6.362;2024-03-08T22:41:27;39.38;;;25.98;;
51326;SDS011;37412;52.836;6.362;2024-03-08T22:44:14;43.33;;;30.15;;
51326;SDS011;37412;52.836;6.362;2024-03-08T22:47:00;40.70;;;30.42;;
51326;SDS011;37412;52.836;6.362;2024-03-08T22:49:46;41.30;;;30.27;;
51326;SDS011;37412;52.836;6.362;2024-03-08T22:52:33;41.58;;;30.45;;
51326;SDS011;37412;52.836;6.362;2024-03-08T22:55:21;41.50;;;31.00;;
51326;SDS011;37412;52.836;6.362;2024-03-08T22:58:08;43.95;;;31.50;;
51326;SDS011;37412;52.836;6.362;2024-03-08T23:00:54;40.00;;;30.47;;
51326;SDS011;37412;52.836;6.362;2024-03-08T23:03:43;43.20;;;27.80;;
51326;SDS011;37412;52.836;6.362;2024-03-08T23:06:30;42.00;;;26.58;;
51326;SDS011;37412;52.836;6.362;2024-03-08T23:09:16;44.65;;;26.80;;
51326;SDS011;37412;52.836;6.362;2024-03-08T23:14:50;43.23;;;26.43;;
51326;SDS011;37412;52.836;6.362;2024-03-08T23:17:43;39.47;;;25.05;;
51326;SDS011;37412;52.836;6.362;2024-03-08T23:20:31;39.33;;;25.20;;
51326;SDS011;37412;52.836;6.362;2024-03-08T23:23:17;45.53;;;27.42;;
51326;SDS011;37412;52.836;6.362;2024-03-08T23:26:04;44.22;;;26.13;;
51326;SDS011;37412;52.836;6.362;2024-03-08T23:28:52;39.60;;;25.00;;
51326;SDS011;37412;52.836;6.362;2024-03-08T23:31:38;40.05;;;26.92;;
